Time;durP1;ratioP1;P1;durP2;ratioP2;P2;SDS_P1;SDS_P2;PMS_P1;PMS_P2;Temp;Humidity;BMP_temperature;BMP_pressure;BME280_temperature;BME280_humidity;BME280_pressure;Samples;Min_cycle;Max_cycle;Signal;HPM_P1;HPM_P2
2021/01/07 00:00:20;;;;;;;1999.90;999.90;;;;;;;;;;5022154;28;20029;-80
2021/01/07 00:02:45;;;;;;;1999.90;999.90;;;;;;;;;;5017279;28;20033;-81
2021/01/07 00:05:11;;;;;;;1999.90;999.90;;;;;;;;;;5018972;28;20030;-81
2021/01/07 00:07:36;;;;;;;1999.90;999.90;;;;;;;;;;5017942;28;20036;-81
2021/01/07 00:10:03;;;;;;;1999.90;999.90;;;;;;;;;;5019122;28;20033;-81
2021/01/07 00:12:28;;;;;;;1999.90;999.90;;;;;;;;;;5019729;28;20029;-81
2021/01/07 00:14:53;;;;;;;1999.90;999.90;;;;;;;;;;5022998;28;20018;-80
2021/01/07 00:17:19;;;;;;;1999.90;999.90;;;;;;;;;;5017214;28;20021;-81
2021/01/07 00:19:44;;;;;;;1999.90;999.90;;;;;;;;;;5021136;28;20022;-80
2021/01/07 00:22:10;;;;;;;1999.90;999.90;;;;;;;;;;5019811;28;20034;-80
2021/01/07 00:24:35;;;;;;;1999.90;999.90;;;;;;;;;;5018504;28;20061;-80
2021/01/07 00:27:01;;;;;;;1999.90;999.90;;;;;;;;;;5025676;28;20021;-81
2021/01/07 00:29:26;;;;;;;1999.90;999.90;;;;;;;;;;5017160;28;20026;-81
2021/01/07 00:31:52;;;;;;;1999.90;999.90;;;;;;;;;;5015128;28;20026;-81
2021/01/07 00:34:17;;;;;;;1999.90;999.90;;;;;;;;;;5019422;28;20061;-81
2021/01/07 00:36:43;;;;;;;1999.90;999.90;;;;;;;;;;5027212;28;20100;-81
2021/01/07 00:39:08;;;;;;;1999.90;999.90;;;;;;;;;;5016064;28;20072;-81
2021/01/07 00:41:33;;;;;;;1999.90;999.90;;;;;;;;;;5019592;28;20493;-82
2021/01/07 00:43:59;;;;;;;1999.90;999.90;;;;;;;;;;5018329;28;20463;-81
2021/01/07 00:46:24;;;;;;;1999.90;999.90;;;;;;;;;;5019006;28;20014;-82
2021/01/07 00:48:50;;;;;;;1999.90;999.90;;;;;;;;;;5014633;28;20058;-81
2021/01/07 00:51:16;;;;;;;1999.90;999.90;;;;;;;;;;5020433;28;20501;-81
2021/01/07 00:53:43;;;;;;;1999.90;999.90;;;;;;;;;;5019267;28;20034;-82
2021/01/07 00:56:14;;;;;;;1999.90;999.90;;;;;;;;;;5015366;28;20064;-81
2021/01/07 00:58:42;;;;;;;1999.90;999.90;;;;;;;;;;5020757;28;20076;-81
2021/01/07 01:01:07;;;;;;;1999.90;999.90;;;;;;;;;;5015401;28;20481;-81
2021/01/07 01:03:33;;;;;;;1999.90;999.90;;;;;;;;;;5019559;28;20493;-81
2021/01/07 01:05:58;;;;;;;1999.90;999.90;;;;;;;;;;5021398;28;20501;-82
2021/01/07 01:08:23;;;;;;;1999.90;999.90;;;;;;;;;;5018497;28;20035;-83
2021/01/07 01:10:49;;;;;;;1999.90;999.90;;;;;;;;;;5018060;28;20053;-82
2021/01/07 01:13:15;;;;;;;1999.90;999.90;;;;;;;;;;5018998;28;20026;-81
2021/01/07 01:15:40;;;;;;;1999.90;999.90;;;;;;;;;;5021419;28;20026;-81
2021/01/07 01:18:08;;;;;;;1999.90;999.90;;;;;;;;;;5016790;28;20030;-81
2021/01/07 01:20:33;;;;;;;1999.90;999.90;;;;;;;;;;5021712;28;20033;-82
2021/01/07 01:22:59;;;;;;;1999.90;999.90;;;;;;;;;;5021240;28;20037;-81
2021/01/07 01:25:24;;;;;;;1999.90;999.90;;;;;;;;;;5018824;28;20029;-82
2021/01/07 01:27:50;;;;;;;1999.90;999.90;;;;;;;;;;5027201;28;20026;-83
2021/01/07 01:30:15;;;;;;;1999.90;999.90;;;;;;;;;;5022238;28;20383;-83
2021/01/07 01:32:41;;;;;;;1999.90;999.90;;;;;;;;;;5028388;28;20025;-82
2021/01/07 01:35:08;;;;;;;1999.90;999.90;;;;;;;;;;5030811;28;20017;-83
2021/01/07 01:37:34;;;;;;;1999.90;999.90;;;;;;;;;;5023786;28;20038;-83
2021/01/07 01:39:59;;;;;;;1999.90;999.90;;;;;;;;;;5028294;28;20049;-83
2021/01/07 01:42:25;;;;;;;1999.90;999.90;;;;;;;;;;5023246;28;20067;-83
2021/01/07 01:44:54;;;;;;;1999.90;999.90;;;;;;;;;;5022907;28;20104;-82
2021/01/07 01:47:20;;;;;;;1999.90;999.90;;;;;;;;;;5027405;28;20117;-82
2021/01/07 01:49:47;;;;;;;1999.90;999.90;;;;;;;;;;5030725;28;20081;-82
2021/01/07 01:52:12;;;;;;;1999.90;999.90;;;;;;;;;;5026295;28;20057;-82
2021/01/07 01:54:38;;;;;;;1999.90;999.90;;;;;;;;;;5027946;28;20060;-82
2021/01/07 01:57:06;;;;;;;1999.90;999.90;;;;;;;;;;5029030;28;20060;-82
2021/01/07 01:59:33;;;;;;;1999.90;999.90;;;;;;;;;;5028702;28;20460;-82
2021/01/07 02:02:04;;;;;;;1999.90;999.90;;;;;;;;;;5028790;28;20567;-82
2021/01/07 02:04:29;;;;;;;1999.90;999.90;;;;;;;;;;5025903;28;20044;-82
2021/01/07 02:06:55;;;;;;;1999.90;999.90;;;;;;;;;;5012604;28;20533;-82
2021/01/07 02:09:21;;;;;;;1999.90;999.90;;;;;;;;;;5023825;28;20036;-82
2021/01/07 02:11:47;;;;;;;1999.90;999.90;;;;;;;;;;5029822;28;20421;-82
2021/01/07 02:14:13;;;;;;;1999.90;999.90;;;;;;;;;;5027448;28;20076;-82
2021/01/07 02:16:38;;;;;;;1999.90;999.90;;;;;;;;;;5027802;28;20053;-82
2021/01/07 02:19:04;;;;;;;1999.90;999.90;;;;;;;;;;5028564;28;20021;-82
2021/01/07 02:21:35;;;;;;;1999.90;999.90;;;;;;;;;;5027890;28;20084;-82
2021/01/07 02:24:01;;;;;;;1999.90;999.90;;;;;;;;;;5022502;28;20121;-82
2021/01/07 02:26:26;;;;;;;1999.90;999.90;;;;;;;;;;5024638;28;20108;-82
2021/01/07 02:28:52;;;;;;;1999.90;999.90;;;;;;;;;;5028308;28;20385;-82
2021/01/07 02:31:18;;;;;;;1999.90;999.90;;;;;;;;;;5026588;28;20018;-82
2021/01/07 02:33:43;;;;;;;1999.90;999.90;;;;;;;;;;5027952;28;20080;-82
2021/01/07 02:36:09;;;;;;;1999.90;999.90;;;;;;;;;;5020348;28;20045;-82
2021/01/07 02:38:35;;;;;;;1999.90;999.90;;;;;;;;;;5020555;28;20026;-82
2021/01/07 02:41:00;;;;;;;1999.90;999.90;;;;;;;;;;5027901;28;20021;-82
2021/01/07 02:43:26;;;;;;;1999.90;999.90;;;;;;;;;;5026964;28;20042;-82
2021/01/07 02:45:51;;;;;;;1999.90;999.90;;;;;;;;;;5028950;28;20639;-82
2021/01/07 02:48:17;;;;;;;1999.90;999.90;;;;;;;;;;5021423;28;20034;-83
2021/01/07 02:50:42;;;;;;;1999.90;999.90;;;;;;;;;;5027736;28;20120;-82
2021/01/07 02:53:08;;;;;;;1999.90;999.90;;;;;;;;;;5027710;28;20030;-82
2021/01/07 02:55:33;;;;;;;1999.90;999.90;;;;;;;;;;5020320;28;20168;-82
2021/01/07 02:57:58;;;;;;;1999.90;999.90;;;;;;;;;;5020257;28;20139;-82
2021/01/07 03:00:24;;;;;;;1999.90;999.90;;;;;;;;;;5024043;28;20018;-82
2021/01/07 03:02:49;;;;;;;1999.90;999.90;;;;;;;;;;5025237;28;20041;-82
2021/01/07 03:05:15;;;;;;;1999.90;999.90;;;;;;;;;;5021887;28;20584;-82
2021/01/07 03:07:40;;;;;;;1999.90;999.90;;;;;;;;;;5022243;28;20044;-83
2021/01/07 03:10:07;;;;;;;1999.90;999.90;;;;;;;;;;5027489;28;20017;-82
2021/01/07 03:12:33;;;;;;;1999.90;999.90;;;;;;;;;;5019208;28;20045;-82
2021/01/07 03:14:59;;;;;;;1999.90;999.90;;;;;;;;;;5019942;28;20009;-82
2021/01/07 03:17:24;;;;;;;1999.90;999.90;;;;;;;;;;5018666;28;20108;-83
2021/01/07 03:19:49;;;;;;;1999.90;999.90;;;;;;;;;;5016292;28;20820;-82
2021/01/07 03:22:15;;;;;;;1999.90;999.90;;;;;;;;;;5019993;28;20038;-82
2021/01/07 03:24:40;;;;;;;1999.90;999.90;;;;;;;;;;5022421;28;20462;-82
2021/01/07 03:27:06;;;;;;;1999.90;999.90;;;;;;;;;;5019637;28;20841;-82
2021/01/07 03:29:31;;;;;;;1999.90;999.90;;;;;;;;;;5020256;28;20021;-82
2021/01/07 03:31:57;;;;;;;1999.90;999.90;;;;;;;;;;5023974;28;20499;-82
2021/01/07 03:34:23;;;;;;;1999.90;999.90;;;;;;;;;;5021697;28;20014;-82
2021/01/07 03:36:48;;;;;;;1999.90;999.90;;;;;;;;;;5024384;28;20033;-82
2021/01/07 03:39:13;;;;;;;1999.90;999.90;;;;;;;;;;5017804;28;20080;-83
2021/01/07 03:41:39;;;;;;;1999.90;999.90;;;;;;;;;;5022202;28;20052;-83
2021/01/07 03:44:05;;;;;;;1999.90;999.90;;;;;;;;;;5027096;28;20022;-83
2021/01/07 03:46:30;;;;;;;1999.90;999.90;;;;;;;;;;5027924;28;20143;-82
2021/01/07 03:48:56;;;;;;;1999.90;999.90;;;;;;;;;;5024781;28;20113;-83
2021/01/07 03:51:21;;;;;;;1999.90;999.90;;;;;;;;;;5026047;28;20442;-83
2021/01/07 03:53:47;;;;;;;1999.90;999.90;;;;;;;;;;5019973;28;20041;-82
2021/01/07 03:56:12;;;;;;;1999.90;999.90;;;;;;;;;;5024466;28;20068;-82
2021/01/07 03:58:37;;;;;;;1999.90;999.90;;;;;;;;;;5027026;28;20064;-83
2021/01/07 04:01:03;;;;;;;1999.90;999.90;;;;;;;;;;5026187;28;20029;-83
2021/01/07 04:03:28;;;;;;;1999.90;999.90;;;;;;;;;;5024181;28;20390;-83
2021/01/07 04:05:54;;;;;;;1999.90;999.90;;;;;;;;;;5027850;28;20116;-83
2021/01/07 04:08:19;;;;;;;1999.90;999.90;;;;;;;;;;5024101;28;20038;-82
2021/01/07 04:10:45;;;;;;;1999.90;999.90;;;;;;;;;;5017648;28;20029;-82
2021/01/07 04:13:10;;;;;;;1999.90;999.90;;;;;;;;;;5020954;28;20068;-83
2021/01/07 04:15:35;;;;;;;1999.90;999.90;;;;;;;;;;5022238;28;20044;-82
2021/01/07 04:18:01;;;;;;;1999.90;999.90;;;;;;;;;;5025894;28;20382;-82
2021/01/07 04:20:26;;;;;;;1999.90;999.90;;;;;;;;;;5018878;28;20040;-82
2021/01/07 04:22:52;;;;;;;1999.90;999.90;;;;;;;;;;5017574;28;20032;-82
2021/01/07 04:25:17;;;;;;;1999.90;999.90;;;;;;;;;;5018761;28;20509;-82
2021/01/07 04:27:43;;;;;;;1999.90;999.90;;;;;;;;;;5017629;28;20034;-82
2021/01/07 04:30:09;;;;;;;1999.90;999.90;;;;;;;;;;5015761;28;20029;-82
2021/01/07 04:32:34;;;;;;;1999.90;999.90;;;;;;;;;;5017350;28;20052;-82
2021/01/07 04:35:00;;;;;;;1999.90;999.90;;;;;;;;;;5019291;28;20040;-82
2021/01/07 04:37:25;;;;;;;1999.90;999.90;;;;;;;;;;5023648;28;20101;-82
2021/01/07 04:39:50;;;;;;;1999.90;999.90;;;;;;;;;;5026415;28;20452;-82
2021/01/07 04:42:16;;;;;;;1999.90;999.90;;;;;;;;;;5022470;28;20061;-82
2021/01/07 04:44:42;;;;;;;1999.90;999.90;;;;;;;;;;5018894;28;20034;-82
2021/01/07 04:47:07;;;;;;;1999.90;999.90;;;;;;;;;;5018300;28;20457;-83
2021/01/07 04:49:32;;;;;;;1999.90;999.90;;;;;;;;;;5017786;28;20472;-82
2021/01/07 04:51:58;;;;;;;1999.90;999.90;;;;;;;;;;5015662;28;20494;-82
2021/01/07 04:54:24;;;;;;;1999.90;999.90;;;;;;;;;;5017837;28;20029;-82
2021/01/07 04:56:50;;;;;;;1999.90;999.90;;;;;;;;;;5018572;28;20116;-82
2021/01/07 04:59:15;;;;;;;1999.90;999.90;;;;;;;;;;5021235;28;20437;-82
2021/01/07 05:01:41;;;;;;;1999.90;999.90;;;;;;;;;;5019811;28;20048;-82
2021/01/07 05:04:08;;;;;;;1999.90;999.90;;;;;;;;;;5015465;28;20156;-82
2021/01/07 05:06:34;;;;;;;1999.90;999.90;;;;;;;;;;5015623;28;20025;-82
2021/01/07 05:09:06;;;;;;;1999.90;999.90;;;;;;;;;;5018337;28;20029;-82
2021/01/07 05:11:32;;;;;;;1999.90;999.90;;;;;;;;;;5015604;28;20030;-83
2021/01/07 05:14:04;;;;;;;1999.90;999.90;;;;;;;;;;5003810;28;20044;-82
2021/01/07 05:16:30;;;;;;;1999.90;999.90;;;;;;;;;;5018570;28;20042;-82
2021/01/07 05:18:55;;;;;;;1999.90;999.90;;;;;;;;;;5031210;28;20049;-82
2021/01/07 05:21:21;;;;;;;1999.90;999.90;;;;;;;;;;5019560;28;20477;-82
2021/01/07 05:23:47;;;;;;;1999.90;999.90;;;;;;;;;;5014421;28;20053;-82
2021/01/07 05:26:14;;;;;;;1999.90;999.90;;;;;;;;;;5020249;28;20064;-82
2021/01/07 05:28:39;;;;;;;1999.90;999.90;;;;;;;;;;5018424;28;20422;-82
2021/01/07 05:31:05;;;;;;;1999.90;999.90;;;;;;;;;;5018712;28;20109;-82
2021/01/07 05:33:30;;;;;;;1999.90;999.90;;;;;;;;;;5018872;28;20478;-82
2021/01/07 05:35:56;;;;;;;1999.90;999.90;;;;;;;;;;5016746;28;20398;-83
2021/01/07 05:38:33;;;;;;;1999.90;999.90;;;;;;;;;;5016216;28;20082;-82
2021/01/07 05:40:59;;;;;;;1999.90;999.90;;;;;;;;;;5016634;28;20112;-82
2021/01/07 05:43:24;;;;;;;1999.90;999.90;;;;;;;;;;5016982;28;20108;-82
2021/01/07 05:45:54;;;;;;;1999.90;999.90;;;;;;;;;;5015734;28;20041;-82
2021/01/07 05:48:20;;;;;;;1999.90;999.90;;;;;;;;;;5017604;28;20041;-82
2021/01/07 05:50:45;;;;;;;1999.90;999.90;;;;;;;;;;5015778;28;20117;-83
2021/01/07 05:53:11;;;;;;;1999.90;999.90;;;;;;;;;;5017203;28;20505;-81
2021/01/07 05:55:37;;;;;;;1999.90;999.90;;;;;;;;;;5015429;28;20014;-81
2021/01/07 05:58:02;;;;;;;1999.90;999.90;;;;;;;;;;5023338;28;20045;-81
2021/01/07 06:00:29;;;;;;;1999.90;999.90;;;;;;;;;;5018029;28;20556;-81
2021/01/07 06:02:57;;;;;;;1999.90;999.90;;;;;;;;;;5015184;28;20506;-81
2021/01/07 06:05:22;;;;;;;1999.90;999.90;;;;;;;;;;5019139;28;20017;-83
2021/01/07 06:07:48;;;;;;;1999.90;999.90;;;;;;;;;;5022006;28;20033;-82
2021/01/07 06:10:16;;;;;;;1999.90;999.90;;;;;;;;;;5015825;28;20032;-83
2021/01/07 06:12:41;;;;;;;1999.90;999.90;;;;;;;;;;5021154;28;20041;-82
2021/01/07 06:15:11;;;;;;;1999.90;999.90;;;;;;;;;;5014235;28;20010;-82
2021/01/07 06:17:37;;;;;;;1999.90;999.90;;;;;;;;;;5002518;28;20037;-82
2021/01/07 06:20:11;;;;;;;1999.90;999.90;;;;;;;;;;5020012;28;20382;-82
2021/01/07 06:22:39;;;;;;;1999.90;999.90;;;;;;;;;;5019463;28;20563;-82
2021/01/07 06:25:08;;;;;;;1999.90;999.90;;;;;;;;;;5020254;28;20061;-82
2021/01/07 06:27:34;;;;;;;1999.90;999.90;;;;;;;;;;5022557;28;20034;-81
2021/01/07 06:29:59;;;;;;;1999.90;999.90;;;;;;;;;;5019572;28;20025;-82
2021/01/07 06:32:27;;;;;;;1999.90;999.90;;;;;;;;;;5020059;28;20040;-81
2021/01/07 06:34:52;;;;;;;1999.90;999.90;;;;;;;;;;5018428;28;20037;-81
2021/01/07 06:37:37;;;;;;;1999.90;999.90;;;;;;;;;;5007414;28;20477;-81
2021/01/07 06:40:06;;;;;;;1999.90;999.90;;;;;;;;;;5023134;28;20029;-82
2021/01/07 06:42:36;;;;;;;1999.90;999.90;;;;;;;;;;5023316;28;20060;-83
2021/01/07 06:45:02;;;;;;;1999.90;999.90;;;;;;;;;;5028647;28;20041;-84
2021/01/07 06:47:28;;;;;;;1999.90;999.90;;;;;;;;;;5018919;28;20068;-84
2021/01/07 06:49:54;;;;;;;1999.90;999.90;;;;;;;;;;5020773;28;20525;-85
2021/01/07 06:52:25;;;;;;;1999.90;999.90;;;;;;;;;;5017551;28;20100;-86
2021/01/07 06:54:54;;;;;;;1999.90;999.90;;;;;;;;;;5022058;28;20030;-86
2021/01/07 06:57:20;;;;;;;1999.90;999.90;;;;;;;;;;5022548;28;20018;-86
2021/01/07 06:59:58;;;;;;;1999.90;999.90;;;;;;;;;;5022683;28;20056;-85
2021/01/07 07:02:24;;;;;;;1999.90;999.90;;;;;;;;;;5021005;28;20112;-84
2021/01/07 07:05:16;;;;;;;1999.90;999.90;;;;;;;;;;5016137;28;20526;-86
2021/01/07 07:08:01;;;;;;;1999.90;999.90;;;;;;;;;;5020367;28;20040;-84
2021/01/07 07:10:27;;;;;;;1999.90;999.90;;;;;;;;;;5015542;28;20045;-84
2021/01/07 07:12:52;;;;;;;1999.90;999.90;;;;;;;;;;5022113;28;20032;-84
2021/01/07 07:15:21;;;;;;;1999.90;999.90;;;;;;;;;;5018234;28;20087;-84
2021/01/07 07:17:47;;;;;;;1999.90;999.90;;;;;;;;;;5024924;28;20537;-83
2021/01/07 07:20:19;;;;;;;1999.90;999.90;;;;;;;;;;5022664;28;20034;-83
2021/01/07 07:22:45;;;;;;;1999.90;999.90;;;;;;;;;;5020255;28;20502;-83
2021/01/07 07:25:11;;;;;;;1999.90;999.90;;;;;;;;;;5015937;28;20025;-83
2021/01/07 07:27:49;;;;;;;1999.90;999.90;;;;;;;;;;5018680;28;20119;-84
2021/01/07 07:30:16;;;;;;;1999.90;999.90;;;;;;;;;;5021684;28;20048;-83
2021/01/07 07:32:45;;;;;;;1999.90;999.90;;;;;;;;;;5027065;28;20022;-85
2021/01/07 07:35:20;;;;;;;1999.90;999.90;;;;;;;;;;5027876;28;20041;-85
2021/01/07 07:37:46;;;;;;;;;;;;;;;;;;5017428;28;20030;-85
2021/01/07 07:40:20;;;;;;;1999.90;999.90;;;;;;;;;;5021253;28;19995;-85
2021/01/07 07:42:46;;;;;;;1999.90;999.90;;;;;;;;;;5023826;28;20144;-84
2021/01/07 07:45:12;;;;;;;1999.90;999.90;;;;;;;;;;5020531;28;20109;-85
2021/01/07 07:47:37;;;;;;;1999.90;999.90;;;;;;;;;;5011729;28;20034;-86
2021/01/07 07:50:03;;;;;;;1999.90;999.90;;;;;;;;;;5021334;28;20042;-82
2021/01/07 07:52:28;;;;;;;1999.90;999.90;;;;;;;;;;5016517;28;20032;-80
2021/01/07 07:54:57;;;;;;;1999.90;999.90;;;;;;;;;;5024564;28;20017;-80
2021/01/07 07:57:23;;;;;;;1999.90;999.90;;;;;;;;;;5020599;28;20030;-84
2021/01/07 07:59:48;;;;;;;1999.90;999.90;;;;;;;;;;5022119;28;20087;-79
2021/01/07 08:02:17;;;;;;;1999.90;999.90;;;;;;;;;;5019984;28;20452;-81
2021/01/07 08:04:42;;;;;;;1999.90;999.90;;;;;;;;;;5022413;28;20382;-79
2021/01/07 08:07:08;;;;;;;1999.90;999.90;;;;;;;;;;5026766;28;20033;-82
2021/01/07 08:09:34;;;;;;;1999.90;999.90;;;;;;;;;;5025081;28;20014;-83
2021/01/07 08:11:59;;;;;;;1999.90;999.90;;;;;;;;;;5021117;28;20044;-82
2021/01/07 08:14:25;;;;;;;1999.90;999.90;;;;;;;;;;5020573;28;20021;-83
2021/01/07 08:16:58;;;;;;;1999.90;999.90;;;;;;;;;;5016775;28;20060;-82
2021/01/07 08:19:30;;;;;;;1999.90;999.90;;;;;;;;;;5020436;28;20052;-83
2021/01/07 08:21:56;;;;;;;1999.90;999.90;;;;;;;;;;5021883;28;20072;-83
2021/01/07 08:24:24;;;;;;;1999.90;999.90;;;;;;;;;;5016663;28;20029;-82
2021/01/07 08:27:09;;;;;;;1999.90;999.90;;;;;;;;;;5019338;28;20458;-83
2021/01/07 08:29:36;;;;;;;1999.90;999.90;;;;;;;;;;5026510;28;20022;-83
2021/01/07 08:32:03;;;;;;;1999.90;999.90;;;;;;;;;;5017208;28;20592;-82
2021/01/07 08:34:29;;;;;;;1999.90;999.90;;;;;;;;;;5009544;28;20039;-80
2021/01/07 08:36:55;;;;;;;1999.90;999.90;;;;;;;;;;5021337;28;20109;-81
2021/01/07 08:39:20;;;;;;;1999.90;999.90;;;;;;;;;;5016975;28;20480;-80
2021/01/07 08:41:45;;;;;;;1999.90;999.90;;;;;;;;;;5022379;28;20025;-79
2021/01/07 08:44:11;;;;;;;1999.90;999.90;;;;;;;;;;5017618;28;20124;-81
2021/01/07 08:46:41;;;;;;;1999.90;999.90;;;;;;;;;;5020550;28;20049;-80
2021/01/07 08:49:06;;;;;;;1999.90;999.90;;;;;;;;;;5017211;28;20132;-80
2021/01/07 08:51:41;;;;;;;1999.90;999.90;;;;;;;;;;5018793;28;20108;-80
2021/01/07 08:54:17;;;;;;;1999.90;999.90;;;;;;;;;;5015679;28;20022;-82
2021/01/07 08:56:43;;;;;;;1999.90;999.90;;;;;;;;;;5038910;28;20032;-82
2021/01/07 08:59:16;;;;;;;1999.90;999.90;;;;;;;;;;5017938;28;20076;-82
2021/01/07 09:01:42;;;;;;;1999.90;999.90;;;;;;;;;;5023923;28;20038;-81
2021/01/07 09:04:26;;;;;;;1999.90;999.90;;;;;;;;;;5026768;28;20029;-82
2021/01/07 09:07:01;;;;;;;1999.90;999.90;;;;;;;;;;5020851;28;20044;-81
2021/01/07 09:09:36;;;;;;;1999.90;999.90;;;;;;;;;;5016527;28;20045;-81
2021/01/07 09:12:07;;;;;;;1999.90;999.90;;;;;;;;;;5024734;28;20037;-80
2021/01/07 09:14:46;;;;;;;1999.90;999.90;;;;;;;;;;5015793;28;20033;-81
2021/01/07 09:17:12;;;;;;;1999.90;999.90;;;;;;;;;;5018752;28;20030;-81
2021/01/07 09:19:37;;;;;;;1999.90;999.90;;;;;;;;;;5018912;28;20021;-81
2021/01/07 09:22:03;;;;;;;1999.90;999.90;;;;;;;;;;5016824;28;20120;-81
2021/01/07 09:24:35;;;;;;;1999.90;999.90;;;;;;;;;;5014799;28;20030;-82
2021/01/07 09:27:04;;;;;;;1999.90;999.90;;;;;;;;;;5023345;28;20033;-82
2021/01/07 09:29:30;;;;;;;1999.90;999.90;;;;;;;;;;5018688;28;20113;-82
2021/01/07 09:31:55;;;;;;;1999.90;999.90;;;;;;;;;;5014840;28;20510;-80
2021/01/07 09:34:20;;;;;;;1999.90;999.90;;;;;;;;;;5014376;28;20035;-85
2021/01/07 09:36:46;;;;;;;1999.90;999.90;;;;;;;;;;5013947;28;20021;-81
2021/01/07 09:39:11;;;;;;;1999.90;999.90;;;;;;;;;;5019231;28;20024;-80
2021/01/07 09:41:37;;;;;;;1999.90;999.90;;;;;;;;;;5019853;28;20018;-81
2021/01/07 09:44:02;;;;;;;1999.90;999.90;;;;;;;;;;5020665;28;20029;-81
2021/01/07 09:46:28;;;;;;;1999.90;999.90;;;;;;;;;;5023460;28;20482;-80
2021/01/07 09:48:53;;;;;;;1999.90;999.90;;;;;;;;;;5020393;28;20045;-81
2021/01/07 09:51:18;;;;;;;1999.90;999.90;;;;;;;;;;5017148;28;20179;-81
2021/01/07 09:53:44;;;;;;;1999.90;999.90;;;;;;;;;;5021095;28;20080;-81
2021/01/07 09:56:09;;;;;;;1999.90;999.90;;;;;;;;;;5025280;28;20026;-80
2021/01/07 09:58:34;;;;;;;1999.90;999.90;;;;;;;;;;5024070;28;20104;-81
2021/01/07 10:01:00;;;;;;;1999.90;999.90;;;;;;;;;;5023406;28;20034;-81
2021/01/07 10:03:25;;;;;;;1999.90;999.90;;;;;;;;;;5025846;28;20440;-81
2021/01/07 10:05:51;;;;;;;1999.90;999.90;;;;;;;;;;5018123;28;20116;-80
2021/01/07 10:08:16;;;;;;;1999.90;999.90;;;;;;;;;;5024956;28;20406;-81
2021/01/07 10:10:42;;;;;;;1999.90;999.90;;;;;;;;;;5022501;28;20478;-81
2021/01/07 10:13:07;;;;;;;1999.90;999.90;;;;;;;;;;5017453;28;20028;-81
2021/01/07 10:15:33;;;;;;;1999.90;999.90;;;;;;;;;;5027334;28;20030;-80
2021/01/07 10:17:58;;;;;;;1999.90;999.90;;;;;;;;;;5023953;28;20117;-80
2021/01/07 10:20:23;;;;;;;1999.90;999.90;;;;;;;;;;5020169;28;20022;-82
2021/01/07 10:22:51;;;;;;;1999.90;999.90;;;;;;;;;;5022263;28;20099;-81
2021/01/07 10:25:17;;;;;;;1999.90;999.90;;;;;;;;;;5022619;28;20034;-81
2021/01/07 10:27:42;;;;;;;1999.90;999.90;;;;;;;;;;5019033;28;20068;-81
2021/01/07 10:30:08;;;;;;;1999.90;999.90;;;;;;;;;;5026217;28;20489;-81
2021/01/07 10:32:34;;;;;;;1999.90;999.90;;;;;;;;;;5021166;28;20025;-81
2021/01/07 10:35:00;;;;;;;1999.90;999.90;;;;;;;;;;5020113;28;20026;-81
2021/01/07 10:37:26;;;;;;;1999.90;999.90;;;;;;;;;;5028799;28;20111;-82
2021/01/07 10:39:53;;;;;;;1999.90;999.90;;;;;;;;;;5022136;28;20033;-81
2021/01/07 10:42:19;;;;;;;1999.90;999.90;;;;;;;;;;5022103;28;20048;-82
2021/01/07 10:44:46;;;;;;;1999.90;999.90;;;;;;;;;;5024723;28;20024;-82
2021/01/07 10:47:12;;;;;;;1999.90;999.90;;;;;;;;;;5023997;28;20383;-82
2021/01/07 10:49:38;;;;;;;1999.90;999.90;;;;;;;;;;5020776;28;20115;-83
2021/01/07 10:52:12;;;;;;;1999.90;999.90;;;;;;;;;;5020772;28;20064;-83
2021/01/07 10:54:53;;;;;;;1999.90;999.90;;;;;;;;;;5018861;28;20108;-82
2021/01/07 10:57:37;;;;;;;1999.90;999.90;;;;;;;;;;5023503;28;20064;-82
2021/01/07 11:00:07;;;;;;;1999.90;999.90;;;;;;;;;;5022945;28;20087;-81
2021/01/07 11:02:44;;;;;;;1999.90;999.90;;;;;;;;;;5021342;28;20080;-82
2021/01/07 11:05:13;;;;;;;1999.90;999.90;;;;;;;;;;5019356;28;20025;-81
2021/01/07 11:07:41;;;;;;;1999.90;999.90;;;;;;;;;;5018702;28;20025;-80
2021/01/07 11:10:07;;;;;;;1999.90;999.90;;;;;;;;;;5030334;28;20391;-85
2021/01/07 11:12:40;;;;;;;1999.90;999.90;;;;;;;;;;5017708;28;20048;-83
2021/01/07 11:15:06;;;;;;;1999.90;999.90;;;;;;;;;;5018063;28;20092;-83
2021/01/07 11:17:32;;;;;;;1999.90;999.90;;;;;;;;;;5021222;28;20026;-83
2021/01/07 11:19:59;;;;;;;1999.90;999.90;;;;;;;;;;5016910;28;20080;-92
2021/01/07 11:22:28;;;;;;;1999.90;999.90;;;;;;;;;;5010118;28;20029;-86
2021/01/07 11:24:54;;;;;;;1999.90;999.90;;;;;;;;;;5024724;28;20032;-84
2021/01/07 11:27:23;;;;;;;1999.90;999.90;;;;;;;;;;5017030;28;20574;-83
2021/01/07 11:29:49;;;;;;;1999.90;999.90;;;;;;;;;;5018167;28;20060;-83
2021/01/07 11:32:15;;;;;;;1999.90;999.90;;;;;;;;;;5018307;28;20022;-84
2021/01/07 11:34:40;;;;;;;1999.90;999.90;;;;;;;;;;5017399;28;20029;-81
2021/01/07 11:37:09;;;;;;;1999.90;999.90;;;;;;;;;;5016901;28;20030;-81
2021/01/07 11:40:02;;;;;;;1999.90;999.90;;;;;;;;;;5025135;28;20204;-81
2021/01/07 11:42:36;;;;;;;1999.90;999.90;;;;;;;;;;5021206;28;20046;-80
2021/01/07 11:45:04;;;;;;;1999.90;999.90;;;;;;;;;;5024650;28;20025;-81
2021/01/07 11:47:31;;;;;;;1999.90;999.90;;;;;;;;;;5014947;28;20431;-81
2021/01/07 11:49:57;;;;;;;1999.90;999.90;;;;;;;;;;5022659;28;20041;-81
2021/01/07 11:52:23;;;;;;;1999.90;999.90;;;;;;;;;;5024237;28;20029;-80
2021/01/07 11:54:51;;;;;;;1999.90;999.90;;;;;;;;;;5017733;28;20527;-82
2021/01/07 11:57:17;;;;;;;1999.90;999.90;;;;;;;;;;5014603;28;20029;-78
2021/01/07 11:59:43;;;;;;;1999.90;999.90;;;;;;;;;;5019054;28;20029;-78
2021/01/07 12:02:09;;;;;;;1999.90;999.90;;;;;;;;;;5021001;28;20037;-78
2021/01/07 12:04:35;;;;;;;1999.90;999.90;;;;;;;;;;5020906;28;20406;-79
2021/01/07 12:07:03;;;;;;;1999.90;999.90;;;;;;;;;;5023269;28;20492;-78
2021/01/07 12:09:42;;;;;;;1999.90;999.90;;;;;;;;;;5016990;28;20026;-78
2021/01/07 12:12:13;;;;;;;1999.90;999.90;;;;;;;;;;5017997;28;20030;-79
2021/01/07 12:14:39;;;;;;;1999.90;999.90;;;;;;;;;;5021598;28;20064;-78
2021/01/07 12:17:05;;;;;;;1999.90;999.90;;;;;;;;;;5021594;28;20028;-78
2021/01/07 12:19:32;;;;;;;1999.90;999.90;;;;;;;;;;5019789;28;20022;-79
2021/01/07 12:21:59;;;;;;;1999.90;999.90;;;;;;;;;;5021748;28;20028;-78
2021/01/07 12:24:26;;;;;;;1999.90;999.90;;;;;;;;;;5020899;28;20110;-78
2021/01/07 12:26:53;;;;;;;1999.90;999.90;;;;;;;;;;5014296;28;20014;-79
2021/01/07 12:29:19;;;;;;;1999.90;999.90;;;;;;;;;;5012951;28;20041;-78
2021/01/07 12:31:48;;;;;;;1999.90;999.90;;;;;;;;;;5022122;28;20013;-78
2021/01/07 12:34:32;;;;;;;1999.90;999.90;;;;;;;;;;5021192;28;20069;-79
2021/01/07 12:37:04;;;;;;;1999.90;999.90;;;;;;;;;;5024447;28;20461;-79
2021/01/07 12:39:32;;;;;;;1999.90;999.90;;;;;;;;;;5024865;28;20172;-79
2021/01/07 12:41:58;;;;;;;1999.90;999.90;;;;;;;;;;5016946;28;20026;-79
2021/01/07 12:44:24;;;;;;;1999.90;999.90;;;;;;;;;;5018365;28;20041;-79
2021/01/07 12:46:54;;;;;;;1999.90;999.90;;;;;;;;;;5013985;28;20119;-78
2021/01/07 12:49:19;;;;;;;1999.90;999.90;;;;;;;;;;5018108;28;20060;-78
2021/01/07 12:51:45;;;;;;;1999.90;999.90;;;;;;;;;;5017647;28;20021;-80
2021/01/07 12:54:13;;;;;;;1999.90;999.90;;;;;;;;;;5032532;28;20054;-78
2021/01/07 12:56:47;;;;;;;1999.90;999.90;;;;;;;;;;5015041;28;20025;-78
2021/01/07 12:59:13;;;;;;;1999.90;999.90;;;;;;;;;;5023516;28;20108;-78
2021/01/07 13:02:02;;;;;;;1999.90;999.90;;;;;;;;;;5021173;28;20040;-78
2021/01/07 13:04:43;;;;;;;1999.90;999.90;;;;;;;;;;5021454;28;20319;-78
2021/01/07 13:07:11;;;;;;;1999.90;999.90;;;;;;;;;;5026421;28;20040;-78
2021/01/07 13:09:38;;;;;;;1999.90;999.90;;;;;;;;;;5015914;28;20017;-76
2021/01/07 13:12:04;;;;;;;1999.90;999.90;;;;;;;;;;5015474;28;20030;-79
2021/01/07 13:14:32;;;;;;;1999.90;999.90;;;;;;;;;;5015417;28;20021;-78
2021/01/07 13:16:58;;;;;;;1999.90;999.90;;;;;;;;;;5017907;28;20030;-79
2021/01/07 13:19:23;;;;;;;1999.90;999.90;;;;;;;;;;5017383;28;20072;-79
2021/01/07 13:21:49;;;;;;;1999.90;999.90;;;;;;;;;;5020250;28;20509;-76
2021/01/07 13:24:14;;;;;;;1999.90;999.90;;;;;;;;;;5014613;28;20115;-79
2021/01/07 13:26:40;;;;;;;1999.90;999.90;;;;;;;;;;5014444;28;20052;-80
2021/01/07 13:29:05;;;;;;;1999.90;999.90;;;;;;;;;;5015836;28;20112;-80
2021/01/07 13:31:31;;;;;;;1999.90;999.90;;;;;;;;;;5018982;28;20022;-80
2021/01/07 13:33:57;;;;;;;1999.90;999.90;;;;;;;;;;5013157;28;20461;-80
2021/01/07 13:36:24;;;;;;;1999.90;999.90;;;;;;;;;;5015901;28;20394;-81
2021/01/07 13:38:50;;;;;;;1999.90;999.90;;;;;;;;;;5017193;28;20021;-82
2021/01/07 13:41:16;;;;;;;1999.90;999.90;;;;;;;;;;5014696;28;20053;-81